KCHS/CHS METAR and TAF weather

Enter ICAO airport designator
Station Type Date Time Source
KCHS METAR 2019/08/18 18:56 UTC NOAA

KCHS 181856Z 19007KT 10SM SCT020 SCT055 BKN120 29/24 A3007 RMK AO2 SLP181 T02940239 $


Station Type Date Time Source
KCHS Decoded METAR 2019/08/18 18:56 UTC NOAA

Station name not available
Aug 18, 2019 - 02:56 PM EDT / 2019.08.18 1856 UTC
Wind: from the S (190 degrees) at 8 MPH (7 KT):0
Visibility: 10 mile(s):0
Sky conditions: mostly cloudy
Temperature: 84.9 F (29.4 C)
Dew Point: 75.0 F (23.9 C)
Relative Humidity: 72%
Pressure (altimeter): 30.07 in. Hg (1018 hPa)
ob: KCHS 181856Z 19007KT 10SM SCT020 SCT055 BKN120 29/24 A3007 RMK AO2 SLP181 T02940239
cycle: 19

Station Type Date Time Source
KCHS TAF 2019/08/18 18:42 UTC NOAA

TAF KCHS 181736Z 1818/1918 23008KT P6SM SCT025 SCT040
FM190100 24004KT P6SM SCT020
FM191400 23006KT P6SM SCT025 SCT060

Example: see airport list